Willian Moreira

Olheiro-Chefe - Palmeiras
4 Abr 2027
Domingo
Processo

Personalidade

Adaptabilidade (14) Ambição (5) Controvérsia (17) Lealdade (4) Pressão (7) Profissionalismo (4) Espírito Esportivo (17) Temperamento (4)

Perfil

Estilo de Treinamento Democrático
Licença Continental A
Determinação 8
Gestão de Pessoas 7
Motivação 9
Disciplina 15
Satisfação no Trabalho
95%
Fadiga
0%
Função Olheiro-Chefe
Salário 55.9K p/s
Contrato 14.03.2030

Desempenho

Comportamento Bom
Eficácia do Treinamento
48%
Desenvolvimento do Jogador
35%
Prevenção de Lesões
55%
Implementação Tática
45%

Eventos Recentes

Avaliou um jogador agora
Participou de uma reunião de recrutamento agora
Avaliou um jogador agora
Avaliou um jogador agora
Avaliou um jogador 7d atrás
Avaliou um jogador 7d atrás
Avaliou um jogador 7d atrás
Avaliou um jogador 7d atrás

Monitorando agora

175
Jogador Clube Status Habilidade Confiança Observado Última observação Último voto
Gérson Cruzeiro Ativo 144 / 138 40% 5 03.04.2027 -
Esequiel Barco Spartak Moscow Ativo 138 / 137 40% 3 03.04.2027 -
Antonino Gallo Lecce Ativo 135 / 139 40% 1 03.04.2027 -
Alexis Vega Toluca Ativo 148 / 150 40% 36 01.04.2027 -
Gonzalo Plata Dinamo Moscow Ativo 134 / 139 40% 19 01.04.2027 -
Nikola Krstović Atalanta Ativo 145 / 142 40% 15 31.03.2027 -
Michy Fellaini KV Oostende Ativo 140 / 131 40% 28 31.03.2027 -
Fotis Ioannidis Sporting CP Ativo 139 / 130 40% 14 31.03.2027 -
Mahmoud Al Bloushi Al Shabab Ativo 149 / 142 40% 29 30.03.2027 -
Luka Jović AEK Ativo 139 / 139 40% 24 30.03.2027 -
Kaio Jorge Cruzeiro Ativo 142 / 148 40% 23 29.03.2027 -
Akor Adams Venezia Ativo 143 / 138 40% 21 28.03.2027 -
Rocco Vata Watford Ativo 125 / 118 40% 2 24.03.2027 -
Leo Castledine Middlesbrough Ativo 126 / 132 40% 2 24.03.2027 -
Kauã Elias Shakhtar Ativo 129 / 138 40% 7 23.03.2027 -
Cesar Corona Veracruz Ativo 136 / 136 40% 18 21.03.2027 -
Jeff Ekhator Juventus Ativo 128 / 134 40% 2 20.03.2027 -
Richard Ledezma Guadalajara Ativo 140 / 139 40% 2 18.03.2027 -
Sidny Lopes Cabral Trabzonspor Ativo 136 / 126 40% 2 18.03.2027 -
Eliezer Mayenda Stade Rennais Ativo 131 / 139 40% 4 16.03.2027 -
Uchenna Ogundu FC Augsburg Ativo 120 / 128 40% 1 16.03.2027 -
Julián Quiñones Al-Qadisiyah Ativo 145 / 141 40% 13 15.03.2027 -
Jesús Angulo Tigres Ativo 137 / 138 40% 2 15.03.2027 -
Marc Guiu Chelsea Ativo 125 / 120 40% 1 15.03.2027 -
Kirill Glebov CSKA Moscow Ativo 126 / 129 40% 1 15.03.2027 -
Jens Odgaard Bologna Ativo 138 / 134 40% 2 10.03.2027 -
George Ilenikhena Al-Ittihad Ativo 121 / 135 40% 1 08.03.2027 -
Luca Orellano Monterrey Ativo 138 / 139 40% 2 06.03.2027 -
Sebastián Córdova Pumas UNAM Ativo 137 / 130 40% 3 06.03.2027 -
Adnan Courtois KV Oostende Ativo 118 / 131 40% 2 05.03.2027 -
Ricardo Mathias Al-Ahli Ativo 120 / 129 40% 1 04.03.2027 -
Artem Dovbyk AS Roma Ativo 140 / 151 40% 3 25.02.2027 -
Erik Lira Cruz Azul Ativo 135 / 135 40% 3 25.02.2027 -
Pedrinho Shakhtar Ativo 141 / 125 40% 2 23.02.2027 -
Leonardo Lelo Braga Ativo 136 / 124 40% 1 23.02.2027 -
Marcel Ruiz Toluca Ativo 143 / 135 40% 3 18.02.2027 -
Roberto Alvarado Guadalajara Ativo 142 / 144 40% 4 18.02.2027 -
Pablo Maffeo Olympiacos Ativo 141 / 135 40% 2 18.02.2027 -
Andrea Colpani Monza Ativo 136 / 140 40% 1 17.02.2027 -
Sayed Abu Farchi Maccabi Tel Aviv Ativo 113 / 118 40% 1 15.02.2027 -
Will Lankshear Middlesbrough Ativo 127 / 118 40% 2 14.02.2027 -
Mateus Mané Manchester United Ativo 131 / 147 40% 2 11.02.2027 -
Xavier Biscayzacú Defensor Sporting Ativo 126 / 124 40% 2 10.02.2027 -
Caio Alexandre Bahia Ativo 133 / 131 40% 3 06.02.2027 -
Mojmír Chytil Besiktas Ativo 136 / 128 40% 11 05.02.2027 -
William Gomes Porto Ativo 136 / 139 40% 4 03.02.2027 -
Jesús Ricardo Angulo Toluca Ativo 134 / 134 40% 1 03.02.2027 -
Galeno Al-Ahli Ativo 150 / 148 40% 3 31.01.2027 -
Facundo Torres Shakhtar Ativo 139 / 129 40% 2 30.01.2027 -
Chris Rigg Sunderland Ativo 129 / 146 40% 1 30.01.2027 -
Sindre Walle Egeli Tottenham Ativo 124 / 128 40% 1 28.01.2027 -
Ansu Fati Monaco Ativo 142 / 136 40% 5 26.01.2027 -
Breel Embolo Brighton Ativo 143 / 133 40% 2 23.01.2027 -
Ernest Nuamah Olympique Lyonnais Ativo 138 / 142 40% 2 20.01.2027 -
Folarin Balogun Monaco Ativo 135 / 139 40% 1 17.01.2027 -
Youssef En-Nesyri Al-Ittihad Ativo 147 / 132 40% 17 12.01.2027 -
Martinelli Fluminense Ativo 140 / 146 40% 1 07.01.2027 -
Sébastien Durand Tours Ativo 132 / 139 40% 1 06.01.2027 -
Félix Lemaréchal Club Brugge Ativo 134 / 136 40% 1 01.01.2027 -
Marcos Antonio Sport Recife Ativo 138 / 139 40% 1 01.01.2027 -
Rayan Fofana RC Lens Ativo 119 / 129 40% 1 29.12.2026 -
Robert FC Copenhagen Ativo 129 / 131 40% 1 19.12.2026 -
Francesco Pio Esposito Inter Ativo 146 / 149 40% 1 15.12.2026 -
Marcos Victor Bahia Rejeitado 119 / 126 83% 1 14.12.2026 Rejeitar
Diego López Valencia Ativo 135 / 146 40% 3 08.12.2026 -
Gianluca Prestianni Benfica Ativo 138 / 137 40% 2 07.12.2026 -
Luis Sinisterra Cruzeiro Ativo 139 / 136 40% 3 05.12.2026 -
Tristan Degreef Anderlecht Ativo 123 / 120 40% 1 03.12.2026 -
Agustín Ruberto River Plate Ativo 116 / 130 40% 1 30.11.2026 -
Carlos Espí Real Madrid Ativo 113 / 127 40% 1 28.11.2026 -
Alexey Batrakov Galatasaray Ativo 141 / 149 40% 6 26.11.2026 -
Kostantis Tzolakis Hull City Ativo 134 / 147 40% 2 26.11.2026 -
Maduka Okoye Udinese Ativo 132 / 136 40% 2 26.11.2026 -
Carl Rushworth Coventry City Rejeitado 139 / 138 40% 1 26.11.2026 -
Pedro Flamengo Rejeitado 147 / 143 40% 8 24.11.2026 -
Figueiredo Alverca Ativo 132 / 124 40% 1 24.11.2026 -
Tamble Monteiro Rio Ave Ativo 119 / 114 40% 1 24.11.2026 -
José Bica Leixões Ativo 105 / 96 40% 1 23.11.2026 -
Urko Izeta Cádiz Ativo 136 / 121 40% 1 23.11.2026 -
Giorgos Koutsias Famalicao Ativo 117 / 127 40% 1 23.11.2026 -
Iván Fresneda Sporting CP Ativo 136 / 147 40% 1 21.11.2026 -
Matteo Cancellieri Lazio Ativo 136 / 148 40% 5 19.11.2026 -
Kasper Dolberg Ajax Ativo 139 / 144 40% 5 17.11.2026 -
Alan Varela Porto Ativo 144 / 145 40% 1 17.11.2026 -
Dom Ballard Leyton Orient Ativo 114 / 123 40% 1 17.11.2026 -
Musa Barrow Al-Khaleej Ativo 137 / 142 40% 1 14.11.2026 -
Viktor Johansson Stoke City Ativo 135 / 137 40% 2 12.11.2026 -
Luiz Júnior Villarreal Ativo 144 / 150 40% 1 12.11.2026 -
Axel Alderweireld KV Oostende Ativo 140 / 150 40% 2 10.11.2026 -
Elia Caprile Cagliari Ativo 143 / 149 40% 1 10.11.2026 -
Leon Grgić Red Bull Salzburg Ativo 120 / 132 40% 1 09.11.2026 -
Othmane Maamma Watford Ativo 125 / 120 40% 1 09.11.2026 -
Veljko Birmančević Ferencvaros Ativo 139 / 129 40% 1 09.11.2026 -
Boulaye Dia Lazio Ativo 145 / 131 40% 5 06.11.2026 -
Raúl Alcaina Penafiel Ativo 97 / 96 40% 1 06.11.2026 -
Zé Leite Oliveirense Ativo 120 / 112 40% 1 06.11.2026 -
Jason Januzaj Mouscron Ativo 150 / 149 40% 11 05.11.2026 -
Alexander Bah Benfica Ativo 135 / 142 40% 1 05.11.2026 -
Ciprian Coman Pandurii Ativo 122 / 115 40% 1 03.11.2026 -
Hugo Duro Valencia Ativo 144 / 143 40% 2 01.11.2026 -
Josep Martínez Inter Ativo 136 / 133 40% 2 26.10.2026 -
Tomoki Hayakawa Feyenoord Ativo 133 / 129 40% 2 26.10.2026 -
Sergey Pinyaev Lokomotiv Moscow Ativo 121 / 128 40% 1 26.10.2026 -
Francisco Moura Porto Ativo 138 / 133 40% 1 26.10.2026 -
Jakub Stolarczyk Leicester City Ativo 136 / 132 40% 1 26.10.2026 -
Sergio Reguilón Inter Miami CF Ativo 139 / 138 40% 2 22.10.2026 -
Justin Bijlow Genoa Ativo 151 / 139 40% 1 20.10.2026 -
Berke Özer LOSC Lille Ativo 137 / 143 40% 1 20.10.2026 -
Matěj Kovář PSV Ativo 138 / 130 40% 1 18.10.2026 -
Edoardo Motta Lazio Ativo 124 / 131 40% 1 18.10.2026 -
Ricardo Pepi PSV Ativo 146 / 147 40% 2 10.10.2026 -
Danilo Botafogo Ativo 134 / 130 40% 2 09.10.2026 -
Evander FC Cincinnati Ativo 136 / 135 40% 1 09.10.2026 -
Carlos Rodríguez Cruz Azul Ativo 137 / 139 40% 1 09.10.2026 -
Oumar Camara Vitoria Guimaraes Ativo 114 / 129 40% 1 05.10.2026 -
Rasmus Højlund Napoli Ativo 154 / 141 40% 3 04.10.2026 -
Agustín Palavecino Cruz Azul Ativo 141 / 138 40% 1 04.10.2026 -
Daniel Bragança Sporting CP Ativo 140 / 137 40% 2 03.10.2026 -
Samuel Lino Flamengo Ativo 140 / 135 40% 2 02.10.2026 -
Lucas Paquetá Flamengo Ativo 135 / 135 40% 1 02.10.2026 -
Kerem Aktürkoğlu Fenerbahce Ativo 141 / 130 40% 1 30.09.2026 -
Dodi Lukébakio Benfica Ativo 143 / 145 40% 3 29.09.2026 -
Liam Delap Nottingham Forest Ativo 139 / 147 40% 4 29.09.2026 -
Steven Bergwijn Al-Ittihad Ativo 145 / 146 40% 4 28.09.2026 -
Richarlison Tottenham Ativo 145 / 138 40% 1 28.09.2026 -
Nikola Vlašić Torino Ativo 139 / 142 40% 2 27.09.2026 -
Santiago Castro AS Roma Ativo 141 / 143 40% 2 27.09.2026 -
Barış Alper Yılmaz Galatasaray Ativo 143 / 154 40% 3 25.09.2026 -
Largie Ramazani Leeds United Ativo 132 / 139 40% 1 24.09.2026 -
Donyell Malen AS Roma Ativo 145 / 150 40% 1 24.09.2026 -
Jorge Meireles AVS Ativo 114 / 110 40% 1 24.09.2026 -
Henrique Araújo Casa Pia Ativo 117 / 128 40% 1 24.09.2026 -
Gustavo Silva Vitoria Guimaraes Ativo 126 / 126 40% 1 24.09.2026 -
Tasos Douvikas Como Ativo 142 / 137 40% 2 22.09.2026 -
Moise Kean Fiorentina Ativo 146 / 144 40% 2 22.09.2026 -
Amine Gouiri Olympique de Marseille Ativo 141 / 136 40% 3 21.09.2026 -
Luis Suárez Sporting CP Ativo 152 / 161 40% 1 21.09.2026 -
Nicolò Zaniolo Udinese Ativo 146 / 143 40% 3 19.09.2026 -
Santiago Giménez AC Milan Ativo 149 / 136 40% 2 18.09.2026 -
Joshua Zirkzee Manchester United Ativo 142 / 147 40% 1 18.09.2026 -
Mihailo Ivanović Millwall Ativo 122 / 137 40% 1 16.09.2026 -
Víctor Gómez Braga Ativo 136 / 134 40% 1 15.09.2026 -
Andreas Schjelderup Benfica Ativo 132 / 132 40% 2 14.09.2026 -
Renan Lodi Atlético Mineiro Ativo 133 / 139 40% 2 14.09.2026 -
Maximiliano Araújo Sporting CP Ativo 152 / 158 40% 1 12.09.2026 -
Marvin Keller Young Boys Ativo 133 / 132 40% 1 12.09.2026 -
Dominik Greif Olympique Lyonnais Ativo 135 / 137 40% 1 12.09.2026 -
Jørgen Strand Larsen Crystal Palace Ativo 146 / 134 40% 1 10.09.2026 -
Exequiel Palacios Ipswich Town Ativo 156 / 150 40% 1 09.09.2026 -
Victor Froholdt Porto Ativo 150 / 166 40% 1 08.09.2026 -
Guilherme Arana Fluminense Ativo 139 / 131 40% 1 08.09.2026 -
Borja Sainz Porto Ativo 142 / 148 40% 1 06.09.2026 -
Lovro Zvonarek Estrela da Amadora Ativo 120 / 136 40% 1 06.09.2026 -
Randal Kolo Muani Juventus Ativo 143 / 146 40% 2 03.09.2026 -
Luca Koleosho Paris FC Ativo 131 / 121 40% 1 02.09.2026 -
Dominic Calvert-Lewin Leeds United Ativo 144 / 137 40% 1 27.08.2026 -
Heorhii Sudakov Benfica Ativo 147 / 142 40% 2 26.08.2026 -
Guus Til PSV Ativo 134 / 142 40% 2 25.08.2026 -
Maher Carrizo Ajax Ativo 114 / 122 40% 1 24.08.2026 -
Ayoub Oufkir AZ Ativo 126 / 134 40% 1 22.08.2026 -
Stefanos Tzimas Brighton Ativo 132 / 142 40% 2 21.08.2026 -
Iñaki Peña Panathinaikos Ativo 143 / 130 40% 1 19.08.2026 -
Matthieu Epolo Standard Liege Ativo 123 / 114 40% 1 19.08.2026 -
Matías Fernández-Pardo LOSC Lille Ativo 138 / 147 40% 1 12.08.2026 -
Arijanet Murić Sassuolo Ativo 131 / 142 40% 1 10.08.2026 -
Robin Roefs Sunderland Ativo 136 / 144 40% 1 10.08.2026 -
Jones El-Abdellaoui Celta Ativo 125 / 140 40% 1 08.08.2026 -
Chupete Málaga Ativo 118 / 133 40% 1 07.08.2026 -
Cucho Hernández Betis Ativo 142 / 139 40% 1 04.08.2026 -
Gonçalo Guedes Real Sociedad Ativo 141 / 145 40% 1 04.08.2026 -
Gorka Guruzeta Athletic Bilbao Ativo 145 / 147 40% 1 04.08.2026 -
Kevin Schade Brentford Ativo 144 / 155 40% 1 04.08.2026 -
Rodrigo Zalazar Sporting CP Ativo 146 / 156 40% 1 04.08.2026 -
Mateo Retegui Al-Qadisiyah Ativo 156 / 145 40% 1 02.08.2026 -
Igor Jesus Nottingham Forest Ativo 145 / 140 40% 1 01.08.2026 -